createdAt,value
2018-04-28T00:01:39.797Z,12.01
2018-04-28T00:04:14.138Z,11.92
2018-04-28T00:06:48.709Z,11.84
2018-04-28T00:09:22.941Z,11.85
2018-04-28T00:11:57.616Z,11.85
2018-04-28T00:14:32.181Z,11.83
2018-04-28T00:17:07.959Z,11.82
2018-04-28T00:19:41.985Z,11.85
2018-04-28T00:22:20.809Z,11.87
2018-04-28T00:24:59.357Z,11.87
2018-04-28T00:27:37.620Z,11.88
2018-04-28T00:30:16.203Z,11.90
2018-04-28T00:32:50.588Z,11.89
2018-04-28T00:35:33.175Z,11.85
2018-04-28T00:38:07.197Z,11.78
2018-04-28T00:40:42.566Z,11.73
2018-04-28T00:43:19.236Z,11.69
2018-04-28T00:45:57.577Z,11.66
2018-04-28T00:48:32.497Z,11.62
2018-04-28T00:51:24.573Z,11.61
2018-04-28T00:54:03.987Z,11.59
2018-04-28T00:56:38.238Z,11.55
2018-04-28T00:59:18.853Z,11.54
2018-04-28T01:02:08.128Z,11.47
2018-04-28T01:04:44.585Z,11.40
2018-04-28T01:07:22.791Z,11.40
2018-04-28T01:10:00.786Z,11.37
2018-04-28T01:12:38.907Z,11.39
2018-04-28T01:15:30.558Z,11.41
2018-04-28T01:18:11.322Z,11.39
2018-04-28T01:23:44.837Z,11.37
2018-04-28T01:29:30.741Z,11.29
2018-04-28T01:32:06.994Z,11.24
2018-04-28T01:34:44.717Z,11.21
2018-04-28T01:37:23.625Z,11.18
2018-04-28T01:40:12.435Z,11.14
2018-04-28T01:42:53.754Z,11.11
2018-04-28T01:45:30.406Z,11.10
2018-04-28T01:51:03.641Z,11.04
2018-04-28T01:56:41.837Z,10.86
2018-04-28T01:59:15.656Z,10.86
2018-04-28T02:01:50.393Z,10.79
2018-04-28T02:04:24.493Z,10.73
2018-04-28T02:07:05.742Z,10.70
2018-04-28T02:09:41.142Z,10.63
2018-04-28T02:12:21.228Z,10.57
2018-04-28T02:15:00.940Z,10.53
2018-04-28T02:17:41.173Z,10.46
2018-04-28T02:20:23.233Z,10.42
2018-04-28T02:23:05.038Z,10.39
2018-04-28T02:25:47.301Z,10.37
2018-04-28T02:28:37.747Z,10.34
2018-04-28T02:31:11.610Z,10.33
2018-04-28T02:33:47.250Z,10.30
2018-04-28T02:36:25.782Z,10.27
2018-04-28T02:39:00.338Z,10.25
2018-04-28T02:44:38.133Z,10.19
2018-04-28T02:47:17.273Z,10.18
2018-04-28T02:49:51.805Z,10.18
2018-04-28T02:52:40.482Z,10.14
2018-04-28T03:08:43.457Z,10.02
2018-04-28T03:11:19.719Z,10.07
2018-04-28T03:13:54.357Z,10.10
2018-04-28T03:16:32.124Z,10.12
2018-04-28T03:19:12.461Z,10.16
2018-04-28T03:21:48.076Z,10.22
2018-04-28T03:37:59.641Z,10.53
2018-04-28T03:40:35.037Z,10.62
2018-04-28T03:56:39.689Z,10.97
2018-04-28T03:59:25.781Z,11.14
2018-04-28T04:02:12.165Z,11.27
2018-04-28T04:18:41.697Z,11.67
2018-04-28T04:21:19.245Z,11.77
2018-04-28T04:24:05.769Z,11.89
2018-04-28T04:26:45.309Z,11.99
2018-04-28T04:29:44.121Z,12.05
2018-04-28T04:32:19.853Z,12.15
2018-04-28T04:34:58.525Z,12.20
2018-04-28T04:37:34.631Z,12.18
2018-04-28T04:40:35.865Z,12.21
2018-04-28T04:43:19.021Z,12.29
2018-04-28T04:46:04.868Z,12.37
2018-04-28T05:02:08.093Z,12.55
2018-04-28T05:18:18.702Z,12.99
2018-04-28T05:20:58.825Z,13.05
2018-04-28T05:37:30.001Z,13.60
2018-04-28T05:40:06.986Z,13.67
2018-04-28T05:42:47.651Z,13.75
2018-04-28T05:45:36.541Z,13.86
2018-04-28T05:48:18.415Z,13.92
2018-04-28T05:51:03.641Z,14.05
2018-04-28T05:53:54.292Z,14.14
2018-04-28T05:56:40.223Z,14.15
2018-04-28T06:13:01.258Z,14.68
2018-04-28T06:15:38.609Z,14.74
2018-04-28T06:18:16.446Z,14.77
2018-04-28T06:20:50.530Z,14.77
2018-04-28T06:23:24.829Z,14.88
2018-04-28T06:25:59.458Z,14.94
2018-04-28T06:28:33.877Z,15.05
2018-04-28T06:31:08.657Z,15.11
2018-04-28T06:33:43.261Z,15.25
2018-04-28T06:36:17.858Z,15.35
2018-04-28T06:38:52.405Z,15.42
2018-04-28T06:41:27.021Z,15.46
2018-04-28T06:44:02.073Z,15.55
2018-04-28T06:46:36.359Z,15.66
2018-04-28T06:49:10.995Z,15.72
2018-04-28T06:51:45.597Z,15.78
2018-04-28T06:54:20.637Z,15.90
2018-04-28T06:56:55.086Z,16.07
2018-04-28T06:59:29.864Z,16.23
2018-04-28T07:02:04.431Z,16.33
2018-04-28T07:04:38.937Z,16.36
2018-04-28T07:07:13.517Z,16.43
2018-04-28T07:09:48.018Z,16.48
2018-04-28T07:12:22.730Z,16.44
2018-04-28T07:14:57.161Z,16.40
2018-04-28T07:17:31.974Z,16.40
2018-04-28T07:20:06.473Z,16.50
2018-04-28T07:22:41.056Z,16.68
2018-04-28T07:25:15.660Z,16.87
2018-04-28T07:27:50.349Z,16.97
2018-04-28T07:30:25.177Z,17.13
2018-04-28T07:32:59.937Z,17.26
2018-04-28T07:35:34.697Z,17.33
2018-04-28T07:38:09.289Z,17.36
2018-04-28T07:40:44.006Z,17.43
2018-04-28T07:43:18.681Z,17.51
2018-04-28T07:45:53.610Z,17.64
2018-04-28T07:48:27.929Z,17.78
2018-04-28T07:51:02.937Z,17.75
2018-04-28T07:53:37.726Z,17.59
2018-04-28T07:56:11.953Z,17.49
2018-04-28T07:58:47.257Z,17.54
2018-04-28T08:01:21.784Z,17.51
2018-04-28T08:03:56.385Z,17.53
2018-04-28T08:06:30.901Z,17.53
2018-04-28T08:09:05.389Z,17.51
2018-04-28T08:11:40.285Z,17.53
2018-04-28T08:14:15.085Z,17.56
2018-04-28T08:16:49.829Z,17.59
2018-04-28T08:19:24.453Z,17.66
2018-04-28T08:21:58.993Z,17.67
2018-04-28T08:24:33.897Z,17.69
2018-04-28T08:27:08.612Z,17.72
2018-04-28T08:29:43.213Z,17.79
2018-04-28T08:32:18.097Z,17.81
2018-04-28T08:34:52.825Z,17.76
2018-04-28T08:37:27.606Z,17.78
2018-04-28T08:40:02.277Z,17.94
2018-04-28T08:42:36.953Z,18.17
2018-04-28T08:45:11.861Z,18.25
2018-04-28T08:47:46.553Z,18.28
2018-04-28T08:50:21.065Z,18.23
2018-04-28T08:52:55.784Z,18.29
2018-04-28T08:55:30.539Z,18.41
2018-04-28T08:58:05.373Z,18.39
2018-04-28T09:00:40.605Z,18.33
2018-04-28T09:03:15.269Z,18.32
2018-04-28T09:05:50.672Z,18.27
2018-04-28T09:08:25.133Z,18.30
2018-04-28T09:10:59.937Z,18.35
2018-04-28T09:13:34.691Z,18.35
2018-04-28T09:16:09.433Z,18.27
2018-04-28T09:18:44.008Z,18.46
2018-04-28T09:21:18.999Z,18.65
2018-04-28T09:23:53.906Z,18.47
2018-04-28T09:26:28.857Z,18.54
2018-04-28T09:29:03.565Z,18.85
2018-04-28T09:31:38.321Z,19.37
2018-04-28T09:34:13.241Z,19.70
2018-04-28T09:36:48.761Z,19.80
2018-04-28T09:39:23.528Z,19.69
2018-04-28T09:41:58.385Z,19.57
2018-04-28T09:44:33.160Z,19.58
2018-04-28T09:47:11.057Z,19.61
2018-04-28T09:49:46.114Z,19.46
2018-04-28T09:52:21.082Z,19.45
2018-04-28T09:54:55.878Z,19.53
2018-04-28T09:57:30.801Z,19.47
2018-04-28T10:00:16.529Z,19.31
2018-04-28T10:02:51.301Z,19.04
2018-04-28T10:05:26.561Z,18.93
2018-04-28T10:08:01.444Z,18.92
2018-04-28T10:10:36.551Z,19.26
2018-04-28T10:13:11.666Z,19.68
2018-04-28T10:15:46.713Z,19.76
2018-04-28T10:18:21.648Z,19.60
2018-04-28T10:20:56.580Z,19.51
2018-04-28T10:23:31.422Z,19.42
2018-04-28T10:26:05.909Z,19.22
2018-04-28T10:28:40.754Z,18.89
2018-04-28T10:31:15.465Z,18.67
2018-04-28T10:33:50.041Z,18.51
2018-04-28T10:36:24.850Z,18.46
2018-04-28T10:38:59.556Z,18.32
2018-04-28T10:41:34.476Z,18.38
2018-04-28T10:44:09.250Z,18.43
2018-04-28T10:46:44.102Z,18.48
2018-04-28T10:49:18.697Z,18.46
2018-04-28T10:51:53.312Z,18.42
2018-04-28T10:54:28.006Z,18.53
2018-04-28T10:57:02.781Z,18.54
2018-04-28T10:59:37.492Z,18.70
2018-04-28T11:02:12.538Z,18.86
2018-04-28T11:04:47.375Z,18.94
2018-04-28T11:07:22.220Z,18.91
2018-04-28T11:09:56.925Z,18.89
2018-04-28T11:12:31.767Z,18.97
2018-04-28T11:15:06.741Z,19.04
2018-04-28T11:17:41.518Z,19.08
2018-04-28T11:20:16.362Z,19.14
2018-04-28T11:22:51.280Z,19.26
2018-04-28T11:25:26.408Z,19.32
2018-04-28T11:28:01.253Z,19.33
2018-04-28T11:30:35.656Z,19.08
2018-04-28T11:33:10.708Z,18.92
2018-04-28T11:35:45.645Z,18.83
2018-04-28T11:38:20.542Z,18.70
2018-04-28T11:40:55.162Z,18.61
2018-04-28T11:43:30.241Z,18.64
2018-04-28T11:46:05.024Z,18.70
2018-04-28T11:48:40.175Z,18.79
2018-04-28T11:51:14.917Z,18.76
2018-04-28T11:53:49.763Z,18.75
2018-04-28T11:56:24.474Z,18.91
2018-04-28T11:58:59.434Z,19.10
2018-04-28T12:01:34.082Z,19.48
2018-04-28T12:04:09.250Z,19.82
2018-04-28T12:06:44.346Z,20.02
2018-04-28T12:09:19.072Z,20.16
2018-04-28T12:11:53.663Z,20.22
2018-04-28T12:14:28.337Z,20.10
2018-04-28T12:17:03.019Z,20.04
2018-04-28T12:19:37.712Z,19.92
2018-04-28T12:22:12.502Z,19.86
2018-04-28T12:24:47.062Z,19.68
2018-04-28T12:27:22.065Z,19.60
2018-04-28T12:29:56.897Z,19.42
2018-04-28T12:32:31.523Z,19.39
2018-04-28T12:35:06.337Z,19.44
2018-04-28T12:37:40.994Z,19.44
2018-04-28T12:40:15.597Z,19.37
2018-04-28T12:42:50.370Z,19.28
2018-04-28T12:45:25.054Z,19.29
2018-04-28T12:47:59.485Z,19.17
2018-04-28T12:50:34.272Z,19.17
2018-04-28T12:53:08.904Z,19.19
2018-04-28T12:55:43.546Z,19.29
2018-04-28T12:58:18.203Z,19.48
2018-04-28T13:00:52.815Z,19.74
2018-04-28T13:03:27.517Z,20.04
2018-04-28T13:06:02.167Z,20.17
2018-04-28T13:08:36.722Z,20.15
2018-04-28T13:11:11.438Z,20.10
2018-04-28T13:13:45.922Z,20.09
2018-04-28T13:16:20.446Z,20.13
2018-04-28T13:19:04.411Z,20.12
2018-04-28T13:21:39.632Z,20.15
2018-04-28T13:24:14.272Z,20.19
2018-04-28T13:26:48.917Z,20.21
2018-04-28T13:29:23.613Z,20.24
2018-04-28T13:31:58.255Z,20.14
2018-04-28T13:34:32.973Z,20.01
2018-04-28T13:37:07.654Z,19.97
2018-04-28T13:39:42.335Z,20.03
2018-04-28T13:42:16.930Z,20.16
2018-04-28T13:44:51.651Z,20.21
2018-04-28T13:47:26.302Z,20.23
2018-04-28T13:50:00.909Z,20.21
2018-04-28T13:52:35.516Z,20.14
2018-04-28T13:55:09.829Z,20.06
2018-04-28T13:57:44.752Z,20.01
2018-04-28T14:00:19.464Z,19.90
2018-04-28T14:02:54.172Z,19.89
2018-04-28T14:05:28.959Z,19.87
2018-04-28T14:08:03.224Z,19.81
2018-04-28T14:10:37.930Z,19.70
2018-04-28T14:13:12.622Z,19.66
2018-04-28T14:15:47.230Z,19.57
2018-04-28T14:18:21.902Z,19.50
2018-04-28T14:20:56.158Z,19.49
2018-04-28T14:23:30.847Z,19.48
2018-04-28T14:26:05.315Z,19.54
2018-04-28T14:28:39.892Z,19.55
2018-04-28T14:31:14.786Z,19.47
2018-04-28T14:33:49.375Z,19.38
2018-04-28T14:36:24.058Z,19.38
2018-04-28T14:38:58.829Z,19.41
2018-04-28T14:41:33.341Z,19.42
2018-04-28T14:44:08.042Z,19.43
2018-04-28T14:46:42.659Z,19.43
2018-04-28T14:49:17.250Z,19.32
2018-04-28T14:51:51.882Z,19.23
2018-04-28T14:54:26.660Z,19.18
2018-04-28T14:57:01.371Z,19.04
2018-04-28T14:59:35.985Z,18.96
2018-04-28T15:02:10.682Z,18.81
2018-04-28T15:04:45.303Z,18.78
2018-04-28T15:07:20.081Z,18.80
2018-04-28T15:09:54.831Z,18.82
2018-04-28T15:12:30.315Z,18.90
2018-04-28T15:15:04.581Z,18.94
2018-04-28T15:17:39.276Z,18.90
2018-04-28T15:20:13.891Z,18.91
2018-04-28T15:22:48.795Z,18.94
2018-04-28T15:25:23.529Z,18.88
2018-04-28T15:27:58.235Z,18.81
2018-04-28T15:30:32.862Z,18.77
2018-04-28T15:33:07.699Z,18.79
2018-04-28T15:35:42.490Z,18.79
2018-04-28T15:38:18.018Z,18.73
2018-04-28T15:40:52.718Z,18.70
2018-04-28T15:43:27.306Z,18.69
2018-04-28T15:46:01.938Z,18.65
2018-04-28T15:48:36.654Z,18.63
2018-04-28T15:51:11.054Z,18.67
2018-04-28T15:53:45.702Z,18.74
2018-04-28T15:56:20.590Z,18.79
2018-04-28T15:58:55.410Z,18.82
2018-04-28T16:01:29.481Z,18.91
2018-04-28T16:04:04.394Z,19.05
2018-04-28T16:06:38.907Z,18.97
2018-04-28T16:09:13.673Z,19.01
2018-04-28T16:11:49.038Z,19.03
2018-04-28T16:14:23.634Z,19.15
2018-04-28T16:16:58.222Z,19.19
2018-04-28T16:19:32.822Z,19.21
2018-04-28T16:22:07.434Z,19.19
2018-04-28T16:24:42.357Z,19.08
2018-04-28T16:27:16.989Z,19.02
2018-04-28T16:29:51.730Z,19.03
2018-04-28T16:32:26.450Z,19.14
2018-04-28T16:35:01.070Z,19.27
2018-04-28T16:37:35.569Z,19.34
2018-04-28T16:40:10.232Z,19.38
2018-04-28T16:42:44.841Z,19.43
2018-04-28T16:45:19.620Z,19.45
2018-04-28T16:47:54.962Z,19.34
2018-04-28T16:50:29.638Z,19.23
2018-04-28T16:53:03.918Z,19.11
2018-04-28T16:55:38.818Z,18.99
2018-04-28T16:58:13.340Z,18.93
2018-04-28T17:00:48.022Z,18.83
2018-04-28T17:03:22.738Z,18.79
2018-04-28T17:05:57.338Z,18.76
2018-04-28T17:08:32.067Z,18.69
2018-04-28T17:11:06.788Z,18.67
2018-04-28T17:13:41.510Z,18.79
2018-04-28T17:16:16.153Z,18.90
2018-04-28T17:18:50.860Z,19.05
2018-04-28T17:21:25.591Z,19.14
2018-04-28T17:24:00.106Z,19.08
2018-04-28T17:26:34.818Z,18.99
2018-04-28T17:29:09.436Z,18.87
2018-04-28T17:31:43.958Z,18.73
2018-04-28T17:34:18.683Z,18.62
2018-04-28T17:36:53.279Z,18.60
2018-04-28T17:39:28.011Z,18.58
2018-04-28T17:42:02.612Z,18.61
2018-04-28T17:44:37.457Z,18.63
2018-04-28T17:47:11.995Z,18.58
2018-04-28T17:49:46.896Z,18.56
2018-04-28T17:52:21.579Z,18.55
2018-04-28T17:54:56.285Z,18.55
2018-04-28T17:57:30.736Z,18.59
2018-04-28T18:00:05.110Z,18.61
2018-04-28T18:02:40.055Z,18.63
2018-04-28T18:05:14.906Z,18.59
2018-04-28T18:07:50.260Z,18.58
2018-04-28T18:10:24.766Z,18.61
2018-04-28T18:12:59.511Z,18.63
2018-04-28T18:15:34.302Z,18.29
2018-04-28T18:18:09.134Z,18.64
2018-04-28T18:20:43.886Z,18.62
2018-04-28T18:23:18.743Z,18.59
2018-04-28T18:25:53.170Z,18.51
2018-04-28T18:28:27.523Z,18.48
2018-04-28T18:31:02.533Z,18.39
2018-04-28T18:33:37.236Z,18.29
2018-04-28T18:36:11.961Z,18.27
2018-04-28T18:38:46.310Z,18.28
2018-04-28T18:41:21.047Z,18.25
2018-04-28T18:43:55.767Z,18.22
2018-04-28T18:46:30.665Z,18.18
2018-04-28T18:49:05.342Z,18.04
2018-04-28T18:51:40.244Z,17.99
2018-04-28T18:54:14.938Z,17.98
2018-04-28T18:56:49.437Z,18.00
2018-04-28T18:59:24.226Z,18.05
2018-04-28T19:01:58.946Z,18.10
2018-04-28T19:04:33.461Z,18.13
2018-04-28T19:07:08.061Z,18.12
2018-04-28T19:09:42.895Z,18.13
2018-04-28T19:12:17.603Z,18.11
2018-04-28T19:14:52.231Z,18.11
2018-04-28T19:17:26.930Z,18.12
2018-04-28T19:20:01.554Z,18.10
2018-04-28T19:22:36.146Z,18.07
2018-04-28T19:25:10.733Z,18.04
2018-04-28T19:27:45.417Z,18.09
2018-04-28T19:30:20.094Z,18.11
2018-04-28T19:32:54.648Z,18.08
2018-04-28T19:35:29.394Z,18.26
2018-04-28T19:38:04.192Z,18.42
2018-04-28T19:40:38.822Z,18.44
2018-04-28T19:43:13.542Z,18.35
2018-04-28T19:45:48.370Z,18.22
2018-04-28T19:48:22.750Z,18.12
2018-04-28T19:50:57.215Z,18.01
2018-04-28T19:53:32.102Z,17.93
2018-04-28T19:56:06.755Z,17.81
2018-04-28T19:58:41.318Z,17.68
2018-04-28T20:01:16.020Z,17.54
2018-04-28T20:03:50.726Z,17.41
2018-04-28T20:06:25.446Z,17.27
2018-04-28T20:08:59.618Z,17.18
2018-04-28T20:11:34.647Z,17.08
2018-04-28T20:14:09.266Z,17.00
2018-04-28T20:16:44.604Z,16.91
2018-04-28T20:19:19.694Z,16.87
2018-04-28T20:35:21.157Z,16.68
2018-04-28T20:37:56.433Z,16.66
2018-04-28T20:40:31.058Z,16.63
2018-04-28T20:43:05.354Z,16.61
2018-04-28T20:45:40.168Z,16.60
2018-04-28T20:48:14.820Z,16.58
2018-04-28T20:50:49.585Z,16.59
2018-04-28T20:53:24.292Z,16.60
2018-04-28T20:55:59.514Z,16.58
2018-04-28T20:58:34.759Z,16.57
2018-04-28T21:01:09.369Z,16.55
2018-04-28T21:03:44.174Z,16.52
2018-04-28T21:06:19.464Z,16.48
2018-04-28T21:08:53.861Z,16.47
2018-04-28T21:11:28.814Z,16.45
2018-04-28T21:14:04.173Z,16.41
2018-04-28T21:16:38.629Z,16.34
2018-04-28T21:19:14.033Z,16.28
2018-04-28T21:21:49.200Z,16.24
2018-04-28T21:24:24.376Z,16.23
2018-04-28T21:26:58.945Z,16.22
2018-04-28T21:29:34.157Z,16.19
2018-04-28T21:32:08.688Z,16.18
2018-04-28T21:34:43.177Z,16.17
2018-04-28T21:37:18.393Z,16.21
2018-04-28T21:39:53.538Z,16.19
2018-04-28T21:42:28.825Z,16.20
2018-04-28T21:45:03.273Z,16.21
2018-04-28T21:47:38.821Z,16.20
2018-04-28T21:50:13.935Z,16.19
2018-04-28T21:52:49.009Z,16.20
2018-04-28T21:55:24.089Z,16.21
2018-04-28T21:57:59.119Z,16.22
2018-04-28T22:00:34.049Z,16.25
2018-04-28T22:03:09.051Z,16.15
2018-04-28T22:05:44.265Z,16.04
2018-04-28T22:08:19.193Z,16.00
2018-04-28T22:10:54.141Z,16.00
2018-04-28T22:13:29.053Z,16.02
2018-04-28T22:16:04.025Z,16.02
2018-04-28T22:18:38.960Z,16.05
2018-04-28T22:21:13.881Z,16.06
2018-04-28T22:23:48.962Z,16.04
2018-04-28T22:26:23.637Z,16.00
2018-04-28T22:28:58.173Z,15.96
2018-04-28T22:31:33.273Z,15.92
2018-04-28T22:34:08.329Z,15.94
2018-04-28T22:36:43.331Z,15.95
2018-04-28T22:39:18.269Z,15.94
2018-04-28T22:41:52.988Z,15.87
2018-04-28T22:44:27.927Z,15.80
2018-04-28T22:47:02.791Z,15.72
2018-04-28T22:49:37.977Z,15.63
2018-04-28T22:52:12.951Z,15.56
2018-04-28T22:54:47.734Z,15.40
2018-04-28T22:57:22.585Z,15.18
2018-04-28T22:59:57.604Z,15.03
2018-04-28T23:02:32.713Z,14.93
2018-04-28T23:05:07.190Z,14.81
2018-04-28T23:07:42.170Z,14.68
2018-04-28T23:10:17.411Z,14.63
2018-04-28T23:12:52.430Z,14.64
2018-04-28T23:15:27.695Z,14.67
2018-04-28T23:18:02.613Z,14.68
2018-04-28T23:20:37.423Z,14.73
2018-04-28T23:23:12.593Z,14.75
2018-04-28T23:25:47.477Z,14.78
2018-04-28T23:28:22.653Z,14.80
2018-04-28T23:30:57.632Z,14.78
2018-04-28T23:33:32.733Z,14.74
2018-04-28T23:36:07.481Z,14.76
2018-04-28T23:38:42.285Z,14.76
2018-04-28T23:41:17.628Z,14.75
2018-04-28T23:43:52.566Z,14.78
2018-04-28T23:46:27.689Z,14.79
2018-04-28T23:49:02.845Z,14.82
2018-04-28T23:51:37.976Z,14.85
2018-04-28T23:54:12.837Z,14.87
2018-04-28T23:56:47.954Z,14.87
2018-04-28T23:59:22.988Z,14.88
